Terminal Aerodrome Forecast
Issued by NWS

Home | Current Version | Previous Version | Text Only | Print | Product List | Glossary On
Versions: 1 2 3 4 5 6 7 8 9 10 11 12 13
000
FTUS45 KGJT 231743
TAFCNY
TAF
KCNY 231743Z 2318/2418 29003KT P6SM SCT090
     FM232200 19008KT P6SM FEW100
     FM240200 36007KT P6SM SCT080 BKN100
     FM240500 29004KT P6SM SCT070 BKN140=

USA.gov is the U.S. government's official web portal to all federal, state and local government web resources and services.